createdAt,value
2019-03-31T00:00:03.144Z,77
2019-03-31T00:01:08.848Z,78
2019-03-31T00:02:03.775Z,78
2019-03-31T00:03:02.926Z,78
2019-03-31T00:04:02.912Z,78
2019-03-31T00:05:02.934Z,78
2019-03-31T00:06:03.532Z,78
2019-03-31T00:07:03.035Z,78
2019-03-31T00:08:03.756Z,78
2019-03-31T00:09:03.830Z,78
2019-03-31T00:10:03.893Z,78
2019-03-31T00:11:02.967Z,78
2019-03-31T00:12:03.838Z,78
2019-03-31T00:13:03.998Z,78
2019-03-31T00:14:03.537Z,78
2019-03-31T00:15:03.803Z,78
2019-03-31T00:16:03.740Z,78
2019-03-31T00:17:03.577Z,78
2019-03-31T00:18:03.112Z,78
2019-03-31T00:19:03.500Z,78
2019-03-31T00:20:03.393Z,78
2019-03-31T00:21:03.201Z,78
2019-03-31T00:22:03.181Z,78
2019-03-31T00:23:03.415Z,78
2019-03-31T00:24:03.107Z,78
2019-03-31T00:25:03.239Z,78
2019-03-31T00:26:02.831Z,78
2019-03-31T00:27:03.129Z,78
2019-03-31T00:28:03.262Z,78
2019-03-31T00:29:03.004Z,78
2019-03-31T00:30:03.293Z,78
2019-03-31T00:31:03.307Z,78
2019-03-31T00:32:02.681Z,78
2019-03-31T00:33:02.811Z,78
2019-03-31T00:34:02.898Z,78
2019-03-31T00:35:03.054Z,78
2019-03-31T00:36:03.884Z,78
2019-03-31T00:37:02.669Z,78
2019-03-31T00:38:02.758Z,78
2019-03-31T00:39:03.750Z,78
2019-03-31T00:40:03.742Z,78
2019-03-31T00:41:03.576Z,78
2019-03-31T00:42:03.801Z,78
2019-03-31T00:43:03.528Z,78
2019-03-31T00:44:03.587Z,78
2019-03-31T00:45:03.472Z,78
2019-03-31T00:46:03.364Z,78
2019-03-31T00:47:03.342Z,78
2019-03-31T00:48:03.361Z,78
2019-03-31T00:49:03.426Z,79
2019-03-31T00:50:03.065Z,79
2019-03-31T00:51:03.232Z,79
2019-03-31T00:52:03.184Z,79
2019-03-31T00:53:03.153Z,79
2019-03-31T00:54:03.121Z,79
2019-03-31T00:55:03.426Z,79
2019-03-31T00:56:03.073Z,79
2019-03-31T00:57:03.034Z,79
2019-03-31T00:58:03.628Z,79
2019-03-31T00:59:02.946Z,79
2019-03-31T01:00:03.333Z,79
2019-03-31T01:01:02.827Z,79
2019-03-31T01:02:03.163Z,79
2019-03-31T01:03:03.095Z,79
2019-03-31T01:04:03.302Z,79
2019-03-31T01:05:03.044Z,79
2019-03-31T01:06:03.074Z,79
2019-03-31T01:07:03.139Z,79
2019-03-31T01:08:03.038Z,79
2019-03-31T01:09:02.940Z,79
2019-03-31T01:10:03.156Z,80
2019-03-31T01:11:03.721Z,80
2019-03-31T01:12:02.920Z,80
2019-03-31T01:13:02.908Z,80
2019-03-31T01:14:03.648Z,80
2019-03-31T01:15:03.743Z,80
2019-03-31T01:16:03.111Z,80
2019-03-31T01:17:03.831Z,80
2019-03-31T01:18:03.741Z,80
2019-03-31T01:19:03.613Z,80
2019-03-31T01:20:03.526Z,80
2019-03-31T01:21:03.260Z,80
2019-03-31T01:22:02.990Z,80
2019-03-31T01:23:03.412Z,80
2019-03-31T01:24:03.157Z,80
2019-03-31T01:25:03.390Z,80
2019-03-31T01:26:03.461Z,80
2019-03-31T01:27:03.221Z,80
2019-03-31T01:28:03.165Z,80
2019-03-31T01:29:03.211Z,80
2019-03-31T01:30:03.635Z,80
2019-03-31T01:31:03.166Z,80
2019-03-31T01:32:02.865Z,80
2019-03-31T01:33:03.253Z,80
2019-03-31T01:34:02.884Z,80
2019-03-31T01:35:03.202Z,80
2019-03-31T01:36:03.056Z,80
2019-03-31T01:37:03.053Z,80
2019-03-31T01:38:02.741Z,80
2019-03-31T01:39:03.138Z,80
2019-03-31T01:40:02.767Z,80
2019-03-31T01:41:03.138Z,80
2019-03-31T01:42:03.813Z,80
2019-03-31T01:43:02.814Z,80
2019-03-31T01:44:03.802Z,80
2019-03-31T01:45:03.526Z,80
2019-03-31T01:46:03.662Z,80
2019-03-31T01:47:03.707Z,80
2019-03-31T01:48:03.712Z,80
2019-03-31T01:49:03.356Z,80
2019-03-31T01:50:03.621Z,80
2019-03-31T01:51:03.547Z,80
2019-03-31T01:52:03.464Z,80
2019-03-31T01:53:03.386Z,80
2019-03-31T01:54:03.548Z,80
2019-03-31T01:55:03.632Z,80
2019-03-31T01:56:02.967Z,80
2019-03-31T01:57:03.308Z,80
2019-03-31T01:58:03.121Z,80
2019-03-31T01:59:03.359Z,80
2019-03-31T02:00:03.378Z,80
2019-03-31T02:01:03.394Z,80
2019-03-31T02:02:05.097Z,80
2019-03-31T02:03:03.724Z,80
2019-03-31T02:04:03.132Z,80
2019-03-31T02:05:03.105Z,80
2019-03-31T02:06:03.095Z,80
2019-03-31T02:07:02.847Z,80
2019-03-31T02:08:03.044Z,80
2019-03-31T02:09:03.677Z,80
2019-03-31T02:10:03.011Z,80
2019-03-31T02:11:02.939Z,80
2019-03-31T02:12:02.701Z,80
2019-03-31T02:13:04.210Z,80
2019-03-31T02:14:03.048Z,80
2019-03-31T02:15:02.930Z,80
2019-03-31T02:16:02.971Z,81
2019-03-31T02:17:03.700Z,81
2019-03-31T02:18:03.548Z,81
2019-03-31T02:19:03.656Z,81
2019-03-31T02:20:03.581Z,81
2019-03-31T02:21:03.667Z,81
2019-03-31T02:22:03.666Z,81
2019-03-31T02:23:03.762Z,81
2019-03-31T02:24:03.594Z,81
2019-03-31T02:25:03.681Z,81
2019-03-31T02:26:03.679Z,81
2019-03-31T02:27:03.369Z,81
2019-03-31T02:28:03.420Z,81
2019-03-31T02:29:03.410Z,81
2019-03-31T02:30:03.571Z,81
2019-03-31T02:31:03.457Z,81
2019-03-31T02:32:03.275Z,81
2019-03-31T02:33:03.126Z,81
2019-03-31T02:34:03.319Z,81
2019-03-31T02:35:03.250Z,81
2019-03-31T02:36:03.093Z,81
2019-03-31T02:37:02.979Z,81
2019-03-31T02:38:02.981Z,81
2019-03-31T02:39:02.924Z,81
2019-03-31T02:40:03.001Z,81
2019-03-31T02:41:03.686Z,81
2019-03-31T02:42:03.032Z,81
2019-03-31T02:43:03.727Z,81
2019-03-31T02:44:03.478Z,82
2019-03-31T02:45:04.174Z,82
2019-03-31T02:46:03.903Z,82
2019-03-31T02:47:03.715Z,82
2019-03-31T02:48:03.283Z,82
2019-03-31T02:49:03.664Z,82
2019-03-31T02:50:03.613Z,82
2019-03-31T02:51:03.519Z,82
2019-03-31T02:52:03.401Z,82
2019-03-31T02:53:03.490Z,82
2019-03-31T02:54:03.228Z,82
2019-03-31T02:55:03.295Z,82
2019-03-31T02:56:03.327Z,82
2019-03-31T02:57:02.911Z,82
2019-03-31T02:58:03.150Z,82
2019-03-31T02:59:02.773Z,82
2019-03-31T03:00:03.419Z,82
2019-03-31T03:01:03.147Z,82
2019-03-31T03:02:03.102Z,82
2019-03-31T03:03:03.074Z,82
2019-03-31T03:04:02.763Z,82
2019-03-31T03:05:20.629Z,82
2019-03-31T03:06:02.917Z,82
2019-03-31T03:07:02.877Z,82
2019-03-31T03:08:03.644Z,82
2019-03-31T03:09:02.901Z,82
2019-03-31T03:10:03.577Z,82
2019-03-31T03:11:03.624Z,82
2019-03-31T03:12:03.742Z,82
2019-03-31T03:13:03.771Z,82
2019-03-31T03:14:03.541Z,82
2019-03-31T03:15:03.577Z,82
2019-03-31T03:16:03.333Z,82
2019-03-31T03:17:03.505Z,82
2019-03-31T03:18:03.355Z,82
2019-03-31T03:19:03.231Z,82
2019-03-31T03:20:03.447Z,82
2019-03-31T03:21:03.458Z,82
2019-03-31T03:22:03.529Z,82
2019-03-31T03:23:03.061Z,82
2019-03-31T03:24:03.316Z,82
2019-03-31T03:25:03.020Z,82
2019-03-31T03:26:03.423Z,82
2019-03-31T03:27:03.083Z,82
2019-03-31T03:28:03.171Z,82
2019-03-31T03:29:02.995Z,82
2019-03-31T03:30:03.138Z,82
2019-03-31T03:31:04.686Z,82
2019-03-31T03:32:03.851Z,82
2019-03-31T03:33:19.987Z,82
2019-03-31T03:34:03.042Z,82
2019-03-31T03:35:02.853Z,82
2019-03-31T03:36:03.660Z,82
2019-03-31T03:37:03.607Z,82
2019-03-31T03:38:03.636Z,82
2019-03-31T03:39:03.744Z,82
2019-03-31T03:40:03.659Z,82
2019-03-31T03:41:03.901Z,82
2019-03-31T03:42:03.565Z,82
2019-03-31T03:43:03.568Z,82
2019-03-31T03:44:03.438Z,82
2019-03-31T03:45:03.644Z,82
2019-03-31T03:46:03.927Z,82
2019-03-31T03:47:03.475Z,82
2019-03-31T03:48:03.378Z,82
2019-03-31T03:49:03.638Z,82
2019-03-31T03:50:03.472Z,82
2019-03-31T03:51:03.213Z,82
2019-03-31T03:52:03.212Z,82
2019-03-31T03:53:03.301Z,82
2019-03-31T03:54:03.258Z,82
2019-03-31T03:55:03.367Z,82
2019-03-31T03:56:02.941Z,82
2019-03-31T03:57:03.289Z,82
2019-03-31T03:58:03.249Z,82
2019-03-31T03:59:03.041Z,82
2019-03-31T04:00:02.780Z,82
2019-03-31T04:01:03.111Z,82
2019-03-31T04:02:03.134Z,82
2019-03-31T04:03:04.117Z,82
2019-03-31T04:04:02.908Z,82
2019-03-31T04:05:02.955Z,82
2019-03-31T04:06:02.885Z,82
2019-03-31T04:07:03.610Z,82
2019-03-31T04:08:02.961Z,82
2019-03-31T04:09:02.844Z,82
2019-03-31T04:10:02.893Z,82
2019-03-31T04:11:03.795Z,82
2019-03-31T04:12:03.433Z,82
2019-03-31T04:13:03.584Z,82
2019-03-31T04:14:03.648Z,82
2019-03-31T04:15:03.723Z,82
2019-03-31T04:16:03.390Z,82
2019-03-31T04:17:03.592Z,82
2019-03-31T04:18:03.409Z,83
2019-03-31T04:19:03.876Z,82
2019-03-31T04:20:03.417Z,83
2019-03-31T04:21:03.520Z,83
2019-03-31T04:22:03.468Z,83
2019-03-31T04:23:03.275Z,83
2019-03-31T04:24:03.070Z,83
2019-03-31T04:25:03.269Z,83
2019-03-31T04:26:03.054Z,83
2019-03-31T04:27:02.849Z,83
2019-03-31T04:28:02.951Z,83
2019-03-31T04:29:03.162Z,83
2019-03-31T04:30:03.105Z,83
2019-03-31T04:31:03.782Z,83
2019-03-31T04:32:03.123Z,83
2019-03-31T04:33:02.970Z,83
2019-03-31T04:34:03.182Z,83
2019-03-31T04:35:03.009Z,83
2019-03-31T04:36:02.877Z,83
2019-03-31T04:37:02.782Z,83
2019-03-31T04:38:03.818Z,83
2019-03-31T04:39:03.619Z,83
2019-03-31T04:40:03.550Z,83
2019-03-31T04:41:02.807Z,83
2019-03-31T04:42:03.896Z,83
2019-03-31T04:43:03.806Z,83
2019-03-31T04:44:03.485Z,83
2019-03-31T04:45:03.739Z,83
2019-03-31T04:46:03.400Z,83
2019-03-31T04:47:03.504Z,83
2019-03-31T04:48:03.423Z,83
2019-03-31T04:49:03.216Z,83
2019-03-31T04:50:03.320Z,83
2019-03-31T04:51:03.095Z,83
2019-03-31T04:52:03.237Z,83
2019-03-31T04:53:03.347Z,83
2019-03-31T04:54:03.341Z,83
2019-03-31T04:55:02.913Z,83
2019-03-31T04:56:03.197Z,83
2019-03-31T04:57:04.910Z,83
2019-03-31T04:58:02.912Z,83
2019-03-31T04:59:02.976Z,83
2019-03-31T05:00:03.139Z,83
2019-03-31T05:01:02.827Z,83
2019-03-31T05:02:03.728Z,83
2019-03-31T05:03:02.905Z,83
2019-03-31T05:04:05.719Z,83
2019-03-31T05:05:03.912Z,83
2019-03-31T05:06:03.690Z,83
2019-03-31T05:07:03.872Z,83
2019-03-31T05:08:03.553Z,83
2019-03-31T05:09:03.785Z,83
2019-03-31T05:10:03.427Z,83
2019-03-31T05:11:02.776Z,83
2019-03-31T05:12:03.482Z,83
2019-03-31T05:13:03.408Z,83
2019-03-31T05:14:03.625Z,83
2019-03-31T05:15:03.256Z,83
2019-03-31T05:16:03.370Z,84
2019-03-31T05:17:03.380Z,84
2019-03-31T05:18:04.786Z,84
2019-03-31T05:19:03.083Z,84
2019-03-31T05:20:03.423Z,84
2019-03-31T05:21:03.047Z,84
2019-03-31T05:22:03.024Z,84
2019-03-31T05:23:02.737Z,84
2019-03-31T05:24:03.305Z,84
2019-03-31T05:25:03.304Z,84
2019-03-31T05:26:03.102Z,84
2019-03-31T05:27:02.997Z,84
2019-03-31T05:28:02.954Z,84
2019-03-31T05:29:02.877Z,84
2019-03-31T05:30:03.953Z,84
2019-03-31T05:31:02.973Z,84
2019-03-31T05:32:03.694Z,84
2019-03-31T05:33:02.927Z,83
2019-03-31T05:34:19.850Z,83
2019-03-31T05:35:02.939Z,83
2019-03-31T05:36:04.018Z,83
2019-03-31T05:37:03.673Z,83
2019-03-31T05:38:03.658Z,83
2019-03-31T05:39:03.702Z,83
2019-03-31T05:40:03.601Z,83
2019-03-31T05:41:03.202Z,83
2019-03-31T05:42:03.514Z,83
2019-03-31T05:43:03.393Z,83
2019-03-31T05:44:06.338Z,83
2019-03-31T05:45:03.461Z,83
2019-03-31T05:46:03.564Z,83
2019-03-31T05:47:03.239Z,83
2019-03-31T05:48:03.179Z,83
2019-03-31T05:49:03.518Z,83
2019-03-31T05:50:03.030Z,83
2019-03-31T05:51:03.123Z,83
2019-03-31T05:52:03.080Z,83
2019-03-31T05:53:03.016Z,83
2019-03-31T05:54:03.591Z,83
2019-03-31T05:55:03.216Z,83
2019-03-31T05:56:02.876Z,83
2019-03-31T05:57:03.774Z,83
2019-03-31T05:58:03.760Z,83
2019-03-31T05:59:03.586Z,83
2019-03-31T06:00:03.414Z,83
2019-03-31T06:01:03.484Z,83
2019-03-31T06:02:03.789Z,83
2019-03-31T06:03:03.643Z,83
2019-03-31T06:04:03.314Z,83
2019-03-31T06:05:03.756Z,83
2019-03-31T06:06:03.655Z,83
2019-03-31T06:07:03.297Z,83
2019-03-31T06:08:03.533Z,83
2019-03-31T06:09:03.090Z,83
2019-03-31T06:10:03.362Z,83
2019-03-31T06:11:03.124Z,83
2019-03-31T06:12:03.092Z,83
2019-03-31T06:13:03.153Z,83
2019-03-31T06:14:03.219Z,83
2019-03-31T06:15:03.117Z,83
2019-03-31T06:16:03.005Z,83
2019-03-31T06:17:02.920Z,83
2019-03-31T06:18:03.856Z,83
2019-03-31T06:19:03.824Z,83
2019-03-31T06:20:03.889Z,83
2019-03-31T06:21:03.603Z,83
2019-03-31T06:22:03.750Z,83
2019-03-31T06:23:03.726Z,83
2019-03-31T06:24:03.510Z,83
2019-03-31T06:25:03.637Z,83
2019-03-31T06:26:03.671Z,83
2019-03-31T06:27:03.360Z,83
2019-03-31T06:28:03.447Z,83
2019-03-31T06:29:03.448Z,83
2019-03-31T06:30:03.603Z,83
2019-03-31T06:31:03.193Z,83
2019-03-31T06:32:03.580Z,83
2019-03-31T06:33:03.231Z,82
2019-03-31T06:34:03.298Z,82
2019-03-31T06:35:03.393Z,82
2019-03-31T06:36:03.142Z,82
2019-03-31T06:37:03.029Z,82
2019-03-31T06:38:02.949Z,82
2019-03-31T06:39:03.107Z,82
2019-03-31T06:40:03.863Z,82
2019-03-31T06:41:03.790Z,82
2019-03-31T06:42:02.917Z,82
2019-03-31T06:43:02.850Z,82
2019-03-31T06:44:02.830Z,81
2019-03-31T06:45:03.848Z,81
2019-03-31T06:46:02.810Z,81
2019-03-31T06:47:03.354Z,81
2019-03-31T06:48:03.428Z,81
2019-03-31T06:49:03.507Z,81
2019-03-31T06:50:03.808Z,81
2019-03-31T06:51:03.252Z,81
2019-03-31T06:52:03.261Z,80
2019-03-31T06:53:03.304Z,81
2019-03-31T06:54:03.282Z,81
2019-03-31T06:55:03.304Z,80
2019-03-31T06:56:03.402Z,80
2019-03-31T06:57:02.821Z,80
2019-03-31T06:58:02.920Z,80
2019-03-31T06:59:03.112Z,80
2019-03-31T07:00:03.341Z,79
2019-03-31T07:01:03.089Z,79
2019-03-31T07:02:03.770Z,79
2019-03-31T07:03:02.975Z,79
2019-03-31T07:04:02.933Z,79
2019-03-31T07:05:03.644Z,79
2019-03-31T07:06:03.520Z,79
2019-03-31T07:07:03.625Z,79
2019-03-31T07:08:03.562Z,78
2019-03-31T07:09:03.422Z,78
2019-03-31T07:10:03.696Z,78
2019-03-31T07:11:03.613Z,78
2019-03-31T07:12:03.239Z,78
2019-03-31T07:13:03.672Z,78
2019-03-31T07:14:03.607Z,78
2019-03-31T07:15:03.587Z,78
2019-03-31T07:16:03.505Z,77
2019-03-31T07:17:03.584Z,77
2019-03-31T07:18:03.199Z,77
2019-03-31T07:19:03.034Z,77
2019-03-31T07:20:03.056Z,77
2019-03-31T07:21:03.252Z,77
2019-03-31T07:22:03.230Z,76
2019-03-31T07:23:03.077Z,76
2019-03-31T07:24:03.172Z,76
2019-03-31T07:25:03.178Z,75
2019-03-31T07:26:02.962Z,75
2019-03-31T07:27:02.772Z,75
2019-03-31T07:28:02.843Z,75
2019-03-31T07:29:03.612Z,75
2019-03-31T07:30:07.437Z,75
2019-03-31T07:31:03.580Z,75
2019-03-31T07:32:03.964Z,75
2019-03-31T07:33:03.778Z,75
2019-03-31T07:34:03.817Z,75
2019-03-31T07:35:19.259Z,75
2019-03-31T07:36:03.567Z,75
2019-03-31T07:37:03.618Z,74
2019-03-31T07:38:03.332Z,74
2019-03-31T07:39:03.698Z,74
2019-03-31T07:40:03.682Z,74
2019-03-31T07:41:14.322Z,74
2019-03-31T07:42:04.099Z,73
2019-03-31T07:43:03.718Z,73
2019-03-31T07:44:03.364Z,73
2019-03-31T07:45:03.274Z,73
2019-03-31T07:46:03.193Z,73
2019-03-31T07:47:02.876Z,72
2019-03-31T07:48:03.304Z,72
2019-03-31T07:49:02.896Z,72
2019-03-31T07:50:03.565Z,72
2019-03-31T07:51:02.749Z,72
2019-03-31T07:52:03.341Z,72
2019-03-31T07:53:02.902Z,72
2019-03-31T07:54:03.040Z,72
2019-03-31T07:55:03.066Z,72
2019-03-31T07:56:02.973Z,72
2019-03-31T07:57:02.993Z,72
2019-03-31T07:58:03.719Z,71
2019-03-31T07:59:03.252Z,71
2019-03-31T08:00:03.707Z,71
2019-03-31T08:01:02.886Z,71
2019-03-31T08:02:03.473Z,71
2019-03-31T08:03:03.029Z,71
2019-03-31T08:04:03.402Z,71
2019-03-31T08:05:03.802Z,70
2019-03-31T08:06:03.507Z,70
2019-03-31T08:07:03.230Z,69
2019-03-31T08:08:03.341Z,69
2019-03-31T08:09:03.494Z,69
2019-03-31T08:10:03.510Z,69
2019-03-31T08:11:03.003Z,69
2019-03-31T08:12:03.177Z,68
2019-03-31T08:13:03.138Z,68
2019-03-31T08:14:02.948Z,68
2019-03-31T08:15:03.223Z,68
2019-03-31T08:16:02.660Z,68
2019-03-31T08:17:02.933Z,67
2019-03-31T08:18:03.621Z,67
2019-03-31T08:19:02.941Z,67
2019-03-31T08:20:02.856Z,67
2019-03-31T08:21:03.807Z,67
2019-03-31T08:22:03.490Z,67
2019-03-31T08:23:03.722Z,67
2019-03-31T08:24:07.093Z,67
2019-03-31T08:25:03.683Z,66
2019-03-31T08:26:03.427Z,66
2019-03-31T08:27:05.894Z,66
2019-03-31T08:28:03.035Z,66
2019-03-31T08:29:03.640Z,66
2019-03-31T08:30:03.563Z,65
2019-03-31T08:31:02.987Z,65
2019-03-31T08:32:03.335Z,65
2019-03-31T08:33:03.327Z,65
2019-03-31T08:34:03.355Z,64
2019-03-31T08:35:03.208Z,64
2019-03-31T08:36:03.448Z,64
2019-03-31T08:37:02.989Z,64
2019-03-31T08:38:03.251Z,64
2019-03-31T08:39:02.928Z,64
2019-03-31T08:40:03.198Z,64
2019-03-31T08:41:03.749Z,64
2019-03-31T08:42:03.718Z,63
2019-03-31T08:43:02.833Z,63
2019-03-31T08:44:03.772Z,63
2019-03-31T08:45:02.780Z,63
2019-03-31T08:46:03.743Z,63
2019-03-31T08:47:03.721Z,63
2019-03-31T08:48:03.591Z,62
2019-03-31T08:49:03.276Z,62
2019-03-31T08:50:03.622Z,62
2019-03-31T08:51:03.491Z,61
2019-03-31T08:52:03.235Z,61
2019-03-31T08:53:03.296Z,61
2019-03-31T08:54:03.447Z,61
2019-03-31T08:55:03.392Z,61
2019-03-31T08:56:03.311Z,60
2019-03-31T08:57:03.306Z,60
2019-03-31T08:58:03.162Z,60
2019-03-31T08:59:03.076Z,60
2019-03-31T09:00:02.936Z,60
2019-03-31T09:01:03.015Z,59
2019-03-31T09:02:03.869Z,59
2019-03-31T09:03:02.931Z,59
2019-03-31T09:04:02.734Z,59
2019-03-31T09:05:03.861Z,59
2019-03-31T09:06:03.770Z,59
2019-03-31T09:07:03.753Z,59
2019-03-31T09:08:03.777Z,58
2019-03-31T09:09:03.659Z,58
2019-03-31T09:10:03.343Z,58
2019-03-31T09:11:03.494Z,58
2019-03-31T09:12:03.439Z,58
2019-03-31T09:13:03.412Z,57
2019-03-31T09:14:03.399Z,57
2019-03-31T09:15:03.660Z,57
2019-03-31T09:16:03.368Z,57
2019-03-31T09:17:03.346Z,57
2019-03-31T09:18:03.320Z,57
2019-03-31T09:19:03.320Z,56
2019-03-31T09:20:03.458Z,56
2019-03-31T09:21:03.329Z,56
2019-03-31T09:22:03.333Z,56
2019-03-31T09:23:02.868Z,56
2019-03-31T09:24:03.047Z,56
2019-03-31T09:25:02.922Z,55
2019-03-31T09:26:03.057Z,55
2019-03-31T09:27:02.934Z,55
2019-03-31T09:28:02.784Z,55
2019-03-31T09:29:02.910Z,55
2019-03-31T09:30:03.424Z,54
2019-03-31T09:31:02.744Z,55
2019-03-31T09:32:03.679Z,55
2019-03-31T09:33:03.517Z,54
2019-03-31T09:34:03.614Z,54
2019-03-31T09:35:03.597Z,54
2019-03-31T09:36:17.138Z,54
2019-03-31T09:37:03.381Z,54
2019-03-31T09:38:03.300Z,53
2019-03-31T09:39:03.366Z,53
2019-03-31T09:40:03.121Z,53
2019-03-31T09:41:03.443Z,53
2019-03-31T09:42:03.128Z,53
2019-03-31T09:43:03.192Z,53
2019-03-31T09:44:03.376Z,53
2019-03-31T09:45:03.597Z,52
2019-03-31T09:46:03.206Z,52
2019-03-31T09:47:03.344Z,51
2019-03-31T09:48:03.216Z,51
2019-03-31T09:49:03.272Z,51
2019-03-31T09:50:03.396Z,51
2019-03-31T09:51:03.033Z,52
2019-03-31T09:52:02.971Z,52
2019-03-31T09:53:03.042Z,52
2019-03-31T09:54:02.853Z,51
2019-03-31T09:55:02.902Z,51
2019-03-31T09:56:02.834Z,51
2019-03-31T09:57:03.179Z,51
2019-03-31T09:58:02.941Z,51
2019-03-31T09:59:02.803Z,50
2019-03-31T10:00:03.287Z,50
2019-03-31T10:01:02.825Z,50
2019-03-31T10:02:03.278Z,49
2019-03-31T10:03:03.024Z,49
2019-03-31T10:04:02.884Z,49
2019-03-31T10:05:03.325Z,49
2019-03-31T10:06:11.498Z,49
2019-03-31T10:07:02.923Z,49
2019-03-31T10:08:02.716Z,49
2019-03-31T10:09:03.123Z,49
2019-03-31T10:10:03.644Z,49
2019-03-31T10:11:03.746Z,49
2019-03-31T10:12:03.431Z,49
2019-03-31T10:13:03.802Z,48
2019-03-31T10:14:03.453Z,48
2019-03-31T10:15:03.656Z,48
2019-03-31T10:16:03.744Z,48
2019-03-31T10:17:03.234Z,47
2019-03-31T10:18:03.372Z,47
2019-03-31T10:19:03.203Z,47
2019-03-31T10:20:03.682Z,47
2019-03-31T10:21:03.276Z,47
2019-03-31T10:22:03.419Z,47
2019-03-31T10:23:03.265Z,47
2019-03-31T10:24:03.094Z,47
2019-03-31T10:25:02.901Z,47
2019-03-31T10:26:03.048Z,47
2019-03-31T10:27:03.159Z,46
2019-03-31T10:28:03.040Z,46
2019-03-31T10:29:03.013Z,46
2019-03-31T10:30:03.533Z,46
2019-03-31T10:31:03.156Z,46
2019-03-31T10:32:03.120Z,46
2019-03-31T10:33:02.915Z,46
2019-03-31T10:34:02.855Z,46
2019-03-31T10:35:02.789Z,45
2019-03-31T10:36:02.898Z,45
2019-03-31T10:37:02.883Z,45
2019-03-31T10:38:03.621Z,44
2019-03-31T10:39:02.866Z,44
2019-03-31T10:40:03.760Z,44
2019-03-31T10:41:03.731Z,43
2019-03-31T10:42:03.602Z,43
2019-03-31T10:43:03.394Z,44
2019-03-31T10:44:04.163Z,44
2019-03-31T10:45:03.522Z,44
2019-03-31T10:46:03.426Z,44
2019-03-31T10:47:03.319Z,44
2019-03-31T10:48:03.380Z,44
2019-03-31T10:49:03.129Z,44
2019-03-31T10:50:03.173Z,44
2019-03-31T10:51:03.359Z,44
2019-03-31T10:52:03.241Z,44
2019-03-31T10:53:02.897Z,44
2019-03-31T10:54:04.968Z,44
2019-03-31T10:55:03.003Z,44
2019-03-31T10:56:03.717Z,43
2019-03-31T10:57:02.987Z,43
2019-03-31T10:58:03.028Z,42
2019-03-31T10:59:02.848Z,41
2019-03-31T11:00:03.606Z,41
2019-03-31T11:01:04.084Z,41
2019-03-31T11:02:03.691Z,41
2019-03-31T11:03:03.631Z,41
2019-03-31T11:04:03.811Z,41
2019-03-31T11:05:03.672Z,41
2019-03-31T11:06:03.298Z,40
2019-03-31T11:07:04.000Z,40
2019-03-31T11:08:03.372Z,40
2019-03-31T11:09:03.669Z,40
2019-03-31T11:10:03.418Z,40
2019-03-31T11:11:03.096Z,40
2019-03-31T11:12:03.420Z,39
2019-03-31T11:13:03.300Z,39
2019-03-31T11:14:03.376Z,39
2019-03-31T11:15:03.362Z,39
2019-03-31T11:16:03.423Z,39
2019-03-31T11:17:03.232Z,39
2019-03-31T11:18:03.377Z,39
2019-03-31T11:19:03.374Z,39
2019-03-31T11:20:03.257Z,39
2019-03-31T11:21:02.892Z,39
2019-03-31T11:22:03.253Z,39
2019-03-31T11:23:03.046Z,39
2019-03-31T11:24:04.121Z,39
2019-03-31T11:25:03.091Z,39
2019-03-31T11:26:03.789Z,39
2019-03-31T11:27:03.521Z,38
2019-03-31T11:28:03.574Z,38
2019-03-31T11:29:03.108Z,38
2019-03-31T11:30:03.589Z,39
2019-03-31T11:31:02.850Z,39
2019-03-31T11:32:03.388Z,39
2019-03-31T11:33:03.000Z,39
2019-03-31T11:34:03.435Z,39
2019-03-31T11:35:03.651Z,39
2019-03-31T11:36:03.646Z,39
2019-03-31T11:37:14.336Z,39
2019-03-31T11:38:03.469Z,39
2019-03-31T11:39:03.501Z,39
2019-03-31T11:40:03.734Z,39
2019-03-31T11:41:03.444Z,39
2019-03-31T11:42:03.691Z,38
2019-03-31T11:43:03.223Z,38
2019-03-31T11:44:03.324Z,38
2019-03-31T11:45:03.301Z,37
2019-03-31T11:46:03.696Z,37
2019-03-31T11:47:03.020Z,37
2019-03-31T11:48:03.071Z,37
2019-03-31T11:49:02.886Z,37
2019-03-31T11:50:03.171Z,37
2019-03-31T11:51:02.890Z,37
2019-03-31T11:52:02.885Z,37
2019-03-31T11:53:03.095Z,37
2019-03-31T11:54:02.736Z,37
2019-03-31T11:55:02.919Z,37
2019-03-31T11:56:03.760Z,37
2019-03-31T11:57:03.716Z,37
2019-03-31T11:58:03.815Z,37
2019-03-31T11:59:03.030Z,38
2019-03-31T12:00:03.698Z,38
2019-03-31T12:01:02.913Z,38
2019-03-31T12:02:03.623Z,38
2019-03-31T12:03:03.642Z,38
2019-03-31T12:04:02.900Z,38
2019-03-31T12:05:06.494Z,38
2019-03-31T12:06:03.730Z,38
2019-03-31T12:07:03.505Z,38
2019-03-31T12:08:03.680Z,38
2019-03-31T12:09:03.446Z,38
2019-03-31T12:10:03.498Z,37
2019-03-31T12:11:03.473Z,37
2019-03-31T12:12:03.726Z,36
2019-03-31T12:13:03.356Z,37
2019-03-31T12:14:03.431Z,37
2019-03-31T12:15:03.414Z,37
2019-03-31T12:16:03.328Z,37
2019-03-31T12:17:03.686Z,37
2019-03-31T12:18:03.361Z,36
2019-03-31T12:19:03.328Z,36
2019-03-31T12:20:03.365Z,36
2019-03-31T12:21:03.428Z,36
2019-03-31T12:22:03.320Z,36
2019-03-31T12:23:03.181Z,36
2019-03-31T12:24:03.021Z,36
2019-03-31T12:25:02.925Z,36
2019-03-31T12:26:02.999Z,36
2019-03-31T12:27:02.703Z,36
2019-03-31T12:28:03.735Z,36
2019-03-31T12:29:03.774Z,36
2019-03-31T12:30:02.661Z,36
2019-03-31T12:31:03.758Z,36
2019-03-31T12:32:02.949Z,36
2019-03-31T12:33:03.610Z,36
2019-03-31T12:34:03.816Z,36
2019-03-31T12:35:03.694Z,36
2019-03-31T12:36:03.886Z,36
2019-03-31T12:37:03.894Z,35
2019-03-31T12:38:03.408Z,35
2019-03-31T12:39:03.329Z,36
2019-03-31T12:40:03.546Z,36
2019-03-31T12:41:03.328Z,36
2019-03-31T12:42:03.662Z,35
2019-03-31T12:43:03.246Z,35
2019-03-31T12:44:03.244Z,35
2019-03-31T12:45:03.173Z,35
2019-03-31T12:46:03.176Z,36
2019-03-31T12:47:03.090Z,37
2019-03-31T12:48:03.123Z,37
2019-03-31T12:49:03.084Z,37
2019-03-31T12:50:03.027Z,37
2019-03-31T12:51:03.001Z,36
2019-03-31T12:52:03.184Z,36
2019-03-31T12:53:02.692Z,36
2019-03-31T12:54:02.849Z,36
2019-03-31T12:55:02.822Z,36
2019-03-31T12:56:02.849Z,35
2019-03-31T12:57:03.913Z,35
2019-03-31T12:58:03.662Z,35
2019-03-31T12:59:03.795Z,35
2019-03-31T13:00:03.749Z,34
2019-03-31T13:01:03.616Z,35
2019-03-31T13:02:03.488Z,35
2019-03-31T13:03:03.667Z,35
2019-03-31T13:04:03.691Z,35
2019-03-31T13:05:03.721Z,35
2019-03-31T13:06:03.423Z,35
2019-03-31T13:07:03.313Z,35
2019-03-31T13:08:03.236Z,35
2019-03-31T13:09:03.602Z,35
2019-03-31T13:10:03.329Z,36
2019-03-31T13:11:03.599Z,36
2019-03-31T13:12:03.432Z,36
2019-03-31T13:13:03.208Z,36
2019-03-31T13:14:03.039Z,36
2019-03-31T13:15:03.371Z,36
2019-03-31T13:16:03.110Z,36
2019-03-31T13:17:01.964Z,36
2019-03-31T13:18:02.960Z,35
2019-03-31T13:19:02.843Z,35
2019-03-31T13:20:02.834Z,35
2019-03-31T13:21:02.955Z,35
2019-03-31T13:22:02.907Z,35
2019-03-31T13:23:02.993Z,35
2019-03-31T13:24:03.195Z,35
2019-03-31T13:25:03.245Z,35
2019-03-31T13:26:02.837Z,35
2019-03-31T13:27:03.103Z,35
2019-03-31T13:28:06.293Z,34
2019-03-31T13:29:02.677Z,35
2019-03-31T13:30:02.994Z,35
2019-03-31T13:31:02.780Z,35
2019-03-31T13:32:03.784Z,35
2019-03-31T13:33:03.194Z,35
2019-03-31T13:34:03.464Z,35
2019-03-31T13:35:03.085Z,35
2019-03-31T13:36:03.042Z,35
2019-03-31T13:37:02.815Z,35
2019-03-31T13:38:11.740Z,35
2019-03-31T13:39:04.351Z,35
2019-03-31T13:40:03.413Z,35
2019-03-31T13:41:03.165Z,35
2019-03-31T13:42:02.933Z,35
2019-03-31T13:43:03.121Z,35
2019-03-31T13:44:03.034Z,35
2019-03-31T13:45:03.124Z,35
2019-03-31T13:46:03.017Z,35
2019-03-31T13:47:03.024Z,35
2019-03-31T13:48:02.910Z,35
2019-03-31T13:49:02.875Z,35
2019-03-31T13:50:02.854Z,35
2019-03-31T13:51:02.913Z,35
2019-03-31T13:52:03.620Z,35
2019-03-31T13:53:03.675Z,35
2019-03-31T13:54:03.662Z,35
2019-03-31T13:55:03.432Z,35
2019-03-31T13:56:03.378Z,35
2019-03-31T13:57:04.028Z,35
2019-03-31T13:58:06.028Z,35
2019-03-31T13:59:03.540Z,35
2019-03-31T14:00:03.388Z,35
2019-03-31T14:01:03.100Z,35
2019-03-31T14:02:03.231Z,35
2019-03-31T14:03:03.047Z,35
2019-03-31T14:04:03.992Z,35
2019-03-31T14:05:03.115Z,35
2019-03-31T14:06:03.237Z,35
2019-03-31T14:07:04.680Z,35
2019-03-31T14:08:03.059Z,35
2019-03-31T14:09:03.020Z,35
2019-03-31T14:10:03.151Z,35
2019-03-31T14:11:02.985Z,35
2019-03-31T14:12:02.747Z,35
2019-03-31T14:13:03.810Z,35
2019-03-31T14:14:02.978Z,35
2019-03-31T14:15:03.097Z,35